sensor_id;sensor_type;location;lat;lon;timestamp;temperature;humidity
5457;DHT22;2751;49.802;9.944;2022-09-03T00:01:50;16.80;60.50
5457;DHT22;2751;49.802;9.944;2022-09-03T00:04:27;16.70;60.70
5457;DHT22;2751;49.802;9.944;2022-09-03T00:07:00;16.60;61.50
5457;DHT22;2751;49.802;9.944;2022-09-03T00:09:31;16.50;62.00
5457;DHT22;2751;49.802;9.944;2022-09-03T00:12:04;16.40;62.60
5457;DHT22;2751;49.802;9.944;2022-09-03T00:14:37;16.30;63.20
5457;DHT22;2751;49.802;9.944;2022-09-03T00:17:09;16.30;64.00
5457;DHT22;2751;49.802;9.944;2022-09-03T00:19:40;16.20;64.90
5457;DHT22;2751;49.802;9.944;2022-09-03T00:22:14;16.20;66.10
5457;DHT22;2751;49.802;9.944;2022-09-03T00:24:43;16.20;67.30
5457;DHT22;2751;49.802;9.944;2022-09-03T00:27:14;16.30;68.40
5457;DHT22;2751;49.802;9.944;2022-09-03T00:29:47;16.30;67.80
5457;DHT22;2751;49.802;9.944;2022-09-03T00:32:19;16.30;67.80
5457;DHT22;2751;49.802;9.944;2022-09-03T00:34:50;16.40;72.50
5457;DHT22;2751;49.802;9.944;2022-09-03T00:37:20;16.40;68.10
5457;DHT22;2751;49.802;9.944;2022-09-03T00:39:47;16.40;69.30
5457;DHT22;2751;49.802;9.944;2022-09-03T00:42:30;16.30;68.70
5457;DHT22;2751;49.802;9.944;2022-09-03T00:45:19;16.20;69.90
5457;DHT22;2751;49.802;9.944;2022-09-03T00:47:59;16.20;70.30
5457;DHT22;2751;49.802;9.944;2022-09-03T00:50:39;16.10;72.70
5457;DHT22;2751;49.802;9.944;2022-09-03T00:53:09;16.00;73.80
5457;DHT22;2751;49.802;9.944;2022-09-03T00:55:45;16.00;77.40
5457;DHT22;2751;49.802;9.944;2022-09-03T00:58:29;16.00;76.10
5457;DHT22;2751;49.802;9.944;2022-09-03T01:00:59;15.90;76.50
5457;DHT22;2751;49.802;9.944;2022-09-03T01:03:33;15.80;77.50
5457;DHT22;2751;49.802;9.944;2022-09-03T01:06:15;15.70;78.60
5457;DHT22;2751;49.802;9.944;2022-09-03T01:09:01;15.70;81.40
5457;DHT22;2751;49.802;9.944;2022-09-03T01:11:36;15.70;82.10
5457;DHT22;2751;49.802;9.944;2022-09-03T01:14:16;15.70;83.30
5457;DHT22;2751;49.802;9.944;2022-09-03T01:16:49;15.60;85.80
5457;DHT22;2751;49.802;9.944;2022-09-03T01:19:37;15.60;88.10
5457;DHT22;2751;49.802;9.944;2022-09-03T01:22:27;15.60;88.00
5457;DHT22;2751;49.802;9.944;2022-09-03T01:25:14;15.60;89.20
5457;DHT22;2751;49.802;9.944;2022-09-03T01:27:57;15.70;93.20
5457;DHT22;2751;49.802;9.944;2022-09-03T01:30:26;15.80;90.30
5457;DHT22;2751;49.802;9.944;2022-09-03T01:33:00;15.70;90.90
5457;DHT22;2751;49.802;9.944;2022-09-03T01:35:34;15.60;91.10
5457;DHT22;2751;49.802;9.944;2022-09-03T01:38:11;15.50;91.90
5457;DHT22;2751;49.802;9.944;2022-09-03T01:40:46;15.50;93.00
5457;DHT22;2751;49.802;9.944;2022-09-03T01:43:31;15.40;94.20
5457;DHT22;2751;49.802;9.944;2022-09-03T01:46:04;15.30;95.60
5457;DHT22;2751;49.802;9.944;2022-09-03T01:48:43;15.30;96.10
5457;DHT22;2751;49.802;9.944;2022-09-03T01:51:18;15.30;96.70
5457;DHT22;2751;49.802;9.944;2022-09-03T01:54:15;15.30;97.10
5457;DHT22;2751;49.802;9.944;2022-09-03T01:56:59;15.20;97.90
5457;DHT22;2751;49.802;9.944;2022-09-03T01:59:31;15.10;99.10
5457;DHT22;2751;49.802;9.944;2022-09-03T02:02:02;15.10;99.80
5457;DHT22;2751;49.802;9.944;2022-09-03T02:04:30;15.10;99.90
5457;DHT22;2751;49.802;9.944;2022-09-03T02:06:59;15.10;99.90
5457;DHT22;2751;49.802;9.944;2022-09-03T02:09:27;15.10;99.90
5457;DHT22;2751;49.802;9.944;2022-09-03T02:11:57;15.10;99.90
5457;DHT22;2751;49.802;9.944;2022-09-03T02:14:26;15.00;99.90
5457;DHT22;2751;49.802;9.944;2022-09-03T02:16:57;15.00;99.90
5457;DHT22;2751;49.802;9.944;2022-09-03T02:19:26;15.00;99.90
5457;DHT22;2751;49.802;9.944;2022-09-03T02:21:55;14.90;99.90
5457;DHT22;2751;49.802;9.944;2022-09-03T02:24:23;14.80;99.90
5457;DHT22;2751;49.802;9.944;2022-09-03T02:26:51;14.80;99.90
5457;DHT22;2751;49.802;9.944;2022-09-03T02:29:18;14.70;99.90
5457;DHT22;2751;49.802;9.944;2022-09-03T02:31:46;14.70;99.90
5457;DHT22;2751;49.802;9.944;2022-09-03T02:34:14;14.70;99.90
5457;DHT22;2751;49.802;9.944;2022-09-03T02:36:44;14.70;99.90
5457;DHT22;2751;49.802;9.944;2022-09-03T02:39:12;14.70;99.90
5457;DHT22;2751;49.802;9.944;2022-09-03T02:41:39;14.70;99.90
5457;DHT22;2751;49.802;9.944;2022-09-03T02:44:11;14.60;99.90
5457;DHT22;2751;49.802;9.944;2022-09-03T02:46:41;14.70;99.90
5457;DHT22;2751;49.802;9.944;2022-09-03T02:49:09;14.70;99.90
5457;DHT22;2751;49.802;9.944;2022-09-03T02:51:39;14.70;99.90
5457;DHT22;2751;49.802;9.944;2022-09-03T02:54:07;14.70;99.90
5457;DHT22;2751;49.802;9.944;2022-09-03T02:56:35;14.70;99.90
5457;DHT22;2751;49.802;9.944;2022-09-03T02:59:02;14.70;99.90
5457;DHT22;2751;49.802;9.944;2022-09-03T03:01:30;14.70;99.90
5457;DHT22;2751;49.802;9.944;2022-09-03T03:03:57;14.60;99.90
5457;DHT22;2751;49.802;9.944;2022-09-03T03:06:24;14.60;99.90
5457;DHT22;2751;49.802;9.944;2022-09-03T03:08:53;14.60;99.90
5457;DHT22;2751;49.802;9.944;2022-09-03T03:11:21;14.50;99.90
5457;DHT22;2751;49.802;9.944;2022-09-03T03:13:50;14.50;99.90
5457;DHT22;2751;49.802;9.944;2022-09-03T03:16:17;14.30;99.90
5457;DHT22;2751;49.802;9.944;2022-09-03T03:18:44;14.30;99.90
5457;DHT22;2751;49.802;9.944;2022-09-03T03:21:13;14.30;99.90
5457;DHT22;2751;49.802;9.944;2022-09-03T03:23:40;14.30;99.90
5457;DHT22;2751;49.802;9.944;2022-09-03T03:26:11;14.30;99.90
5457;DHT22;2751;49.802;9.944;2022-09-03T03:28:38;14.30;99.90
5457;DHT22;2751;49.802;9.944;2022-09-03T03:31:07;14.30;99.90
5457;DHT22;2751;49.802;9.944;2022-09-03T03:33:36;14.30;99.90
5457;DHT22;2751;49.802;9.944;2022-09-03T03:36:04;14.30;99.90
5457;DHT22;2751;49.802;9.944;2022-09-03T03:38:32;14.20;99.90
5457;DHT22;2751;49.802;9.944;2022-09-03T03:41:05;14.20;99.90
5457;DHT22;2751;49.802;9.944;2022-09-03T03:43:33;14.20;99.90
5457;DHT22;2751;49.802;9.944;2022-09-03T03:46:00;14.30;99.90
5457;DHT22;2751;49.802;9.944;2022-09-03T03:48:27;14.30;99.90
5457;DHT22;2751;49.802;9.944;2022-09-03T03:50:53;14.30;99.90
5457;DHT22;2751;49.802;9.944;2022-09-03T03:53:20;14.30;99.90
5457;DHT22;2751;49.802;9.944;2022-09-03T03:55:54;14.30;99.90
5457;DHT22;2751;49.802;9.944;2022-09-03T03:58:21;14.30;99.90
5457;DHT22;2751;49.802;9.944;2022-09-03T04:00:50;14.30;99.90
5457;DHT22;2751;49.802;9.944;2022-09-03T04:03:17;14.40;99.90
5457;DHT22;2751;49.802;9.944;2022-09-03T04:05:54;14.40;99.90
5457;DHT22;2751;49.802;9.944;2022-09-03T04:08:21;14.50;99.90
5457;DHT22;2751;49.802;9.944;2022-09-03T04:10:48;14.60;99.90
5457;DHT22;2751;49.802;9.944;2022-09-03T04:13:16;14.60;99.90
5457;DHT22;2751;49.802;9.944;2022-09-03T04:15:43;14.60;99.90
5457;DHT22;2751;49.802;9.944;2022-09-03T04:18:11;14.60;99.90
5457;DHT22;2751;49.802;9.944;2022-09-03T04:20:38;14.80;99.90
5457;DHT22;2751;49.802;9.944;2022-09-03T04:23:05;14.80;99.90
5457;DHT22;2751;49.802;9.944;2022-09-03T04:25:32;14.80;99.90
5457;DHT22;2751;49.802;9.944;2022-09-03T04:27:59;14.80;99.90
5457;DHT22;2751;49.802;9.944;2022-09-03T04:30:28;14.80;99.90
5457;DHT22;2751;49.802;9.944;2022-09-03T04:32:55;14.80;99.90
5457;DHT22;2751;49.802;9.944;2022-09-03T04:35:25;14.80;99.90
5457;DHT22;2751;49.802;9.944;2022-09-03T04:37:53;14.80;99.90
5457;DHT22;2751;49.802;9.944;2022-09-03T04:40:21;14.80;99.90
5457;DHT22;2751;49.802;9.944;2022-09-03T04:42:47;14.90;99.90
5457;DHT22;2751;49.802;9.944;2022-09-03T04:45:14;15.10;99.90
5457;DHT22;2751;49.802;9.944;2022-09-03T04:47:43;15.20;99.90
5457;DHT22;2751;49.802;9.944;2022-09-03T04:50:12;15.20;99.90
5457;DHT22;2751;49.802;9.944;2022-09-03T04:52:40;15.10;99.90
5457;DHT22;2751;49.802;9.944;2022-09-03T04:55:08;15.00;99.90
5457;DHT22;2751;49.802;9.944;2022-09-03T04:57:36;15.00;99.90
5457;DHT22;2751;49.802;9.944;2022-09-03T05:00:07;15.00;99.90
5457;DHT22;2751;49.802;9.944;2022-09-03T05:02:36;15.00;99.90
5457;DHT22;2751;49.802;9.944;2022-09-03T05:05:03;15.00;99.90
5457;DHT22;2751;49.802;9.944;2022-09-03T05:07:30;15.10;99.90
5457;DHT22;2751;49.802;9.944;2022-09-03T05:10:06;15.10;99.90
5457;DHT22;2751;49.802;9.944;2022-09-03T05:12:34;15.10;99.90
5457;DHT22;2751;49.802;9.944;2022-09-03T05:15:01;15.00;99.90
5457;DHT22;2751;49.802;9.944;2022-09-03T05:17:28;15.00;99.90
5457;DHT22;2751;49.802;9.944;2022-09-03T05:19:55;15.10;99.90
5457;DHT22;2751;49.802;9.944;2022-09-03T05:22:23;15.10;99.90
5457;DHT22;2751;49.802;9.944;2022-09-03T05:24:50;15.10;99.90
5457;DHT22;2751;49.802;9.944;2022-09-03T05:27:18;15.20;99.90
5457;DHT22;2751;49.802;9.944;2022-09-03T05:29:45;15.20;99.90
5457;DHT22;2751;49.802;9.944;2022-09-03T05:32:12;15.10;99.90
5457;DHT22;2751;49.802;9.944;2022-09-03T05:34:40;15.10;99.90
5457;DHT22;2751;49.802;9.944;2022-09-03T05:37:07;15.20;99.90
5457;DHT22;2751;49.802;9.944;2022-09-03T05:39:34;15.30;99.90
5457;DHT22;2751;49.802;9.944;2022-09-03T05:42:02;15.30;99.90
5457;DHT22;2751;49.802;9.944;2022-09-03T05:44:30;15.40;99.90
5457;DHT22;2751;49.802;9.944;2022-09-03T05:46:57;15.40;99.90
5457;DHT22;2751;49.802;9.944;2022-09-03T05:49:24;15.50;99.90
5457;DHT22;2751;49.802;9.944;2022-09-03T05:51:51;15.20;99.90
5457;DHT22;2751;49.802;9.944;2022-09-03T05:54:18;15.60;99.90
5457;DHT22;2751;49.802;9.944;2022-09-03T05:56:45;15.70;99.90
5457;DHT22;2751;49.802;9.944;2022-09-03T05:59:12;15.90;99.90
5457;DHT22;2751;49.802;9.944;2022-09-03T06:01:42;15.90;99.90
5457;DHT22;2751;49.802;9.944;2022-09-03T06:04:11;16.00;99.90
5457;DHT22;2751;49.802;9.944;2022-09-03T06:06:40;16.10;99.90
5457;DHT22;2751;49.802;9.944;2022-09-03T06:09:08;16.00;99.90
5457;DHT22;2751;49.802;9.944;2022-09-03T06:11:37;16.10;99.90
5457;DHT22;2751;49.802;9.944;2022-09-03T06:14:06;16.20;99.90
5457;DHT22;2751;49.802;9.944;2022-09-03T06:16:35;16.20;99.90
5457;DHT22;2751;49.802;9.944;2022-09-03T06:19:05;16.40;99.90
5457;DHT22;2751;49.802;9.944;2022-09-03T06:21:34;16.50;99.90
5457;DHT22;2751;49.802;9.944;2022-09-03T06:24:01;16.60;99.90
5457;DHT22;2751;49.802;9.944;2022-09-03T06:26:29;16.70;99.90
5457;DHT22;2751;49.802;9.944;2022-09-03T06:28:56;16.70;99.90
5457;DHT22;2751;49.802;9.944;2022-09-03T06:31:25;17.00;99.90
5457;DHT22;2751;49.802;9.944;2022-09-03T06:33:52;17.10;99.90
5457;DHT22;2751;49.802;9.944;2022-09-03T06:36:23;17.00;99.90
5457;DHT22;2751;49.802;9.944;2022-09-03T06:38:52;17.20;99.90
5457;DHT22;2751;49.802;9.944;2022-09-03T06:41:21;17.40;99.90
5457;DHT22;2751;49.802;9.944;2022-09-03T06:43:51;17.50;99.90
5457;DHT22;2751;49.802;9.944;2022-09-03T06:46:19;17.50;99.90
5457;DHT22;2751;49.802;9.944;2022-09-03T06:48:47;17.70;99.90
5457;DHT22;2751;49.802;9.944;2022-09-03T06:51:17;17.80;99.90
5457;DHT22;2751;49.802;9.944;2022-09-03T06:53:48;17.90;99.90
5457;DHT22;2751;49.802;9.944;2022-09-03T06:56:16;17.90;99.90
5457;DHT22;2751;49.802;9.944;2022-09-03T06:58:45;17.90;99.90
5457;DHT22;2751;49.802;9.944;2022-09-03T07:01:14;18.00;99.90
5457;DHT22;2751;49.802;9.944;2022-09-03T07:03:43;18.10;99.90
5457;DHT22;2751;49.802;9.944;2022-09-03T07:06:12;18.20;99.90
5457;DHT22;2751;49.802;9.944;2022-09-03T07:08:40;18.30;99.90
5457;DHT22;2751;49.802;9.944;2022-09-03T07:11:10;18.30;99.90
5457;DHT22;2751;49.802;9.944;2022-09-03T07:13:38;18.40;99.90
5457;DHT22;2751;49.802;9.944;2022-09-03T07:16:07;19.00;99.90
5457;DHT22;2751;49.802;9.944;2022-09-03T07:18:35;19.20;99.90
5457;DHT22;2751;49.802;9.944;2022-09-03T07:21:04;19.20;99.90
5457;DHT22;2751;49.802;9.944;2022-09-03T07:23:32;19.40;99.90
5457;DHT22;2751;49.802;9.944;2022-09-03T07:26:01;19.70;99.90
5457;DHT22;2751;49.802;9.944;2022-09-03T07:28:29;19.90;99.90
5457;DHT22;2751;49.802;9.944;2022-09-03T07:31:02;20.00;99.90
5457;DHT22;2751;49.802;9.944;2022-09-03T07:33:30;20.40;99.90
5457;DHT22;2751;49.802;9.944;2022-09-03T07:36:01;20.70;99.90
5457;DHT22;2751;49.802;9.944;2022-09-03T07:38:29;21.00;99.90
5457;DHT22;2751;49.802;9.944;2022-09-03T07:40:58;21.40;99.90
5457;DHT22;2751;49.802;9.944;2022-09-03T07:43:26;21.50;95.10
5457;DHT22;2751;49.802;9.944;2022-09-03T07:45:55;21.10;97.20
5457;DHT22;2751;49.802;9.944;2022-09-03T07:48:22;21.20;96.40
5457;DHT22;2751;49.802;9.944;2022-09-03T07:50:49;21.20;91.80
5457;DHT22;2751;49.802;9.944;2022-09-03T07:53:17;21.40;90.80
5457;DHT22;2751;49.802;9.944;2022-09-03T07:55:45;21.50;96.50
5457;DHT22;2751;49.802;9.944;2022-09-03T07:58:12;22.10;92.40
5457;DHT22;2751;49.802;9.944;2022-09-03T08:00:39;22.80;91.60
5457;DHT22;2751;49.802;9.944;2022-09-03T08:03:08;23.10;80.90
5457;DHT22;2751;49.802;9.944;2022-09-03T08:05:36;23.20;85.00
5457;DHT22;2751;49.802;9.944;2022-09-03T08:08:03;24.30;75.10
5457;DHT22;2751;49.802;9.944;2022-09-03T08:10:32;25.10;73.20
5457;DHT22;2751;49.802;9.944;2022-09-03T08:12:59;25.60;68.70
5457;DHT22;2751;49.802;9.944;2022-09-03T08:15:30;25.90;64.50
5457;DHT22;2751;49.802;9.944;2022-09-03T08:17:57;24.90;62.60
5457;DHT22;2751;49.802;9.944;2022-09-03T08:20:26;23.90;64.30
5457;DHT22;2751;49.802;9.944;2022-09-03T08:22:59;23.00;66.80
5457;DHT22;2751;49.802;9.944;2022-09-03T08:25:26;22.20;68.40
5457;DHT22;2751;49.802;9.944;2022-09-03T08:27:53;22.00;71.90
5457;DHT22;2751;49.802;9.944;2022-09-03T08:30:23;22.20;72.50
5457;DHT22;2751;49.802;9.944;2022-09-03T08:32:52;22.30;71.40
5457;DHT22;2751;49.802;9.944;2022-09-03T08:35:19;22.20;69.90
5457;DHT22;2751;49.802;9.944;2022-09-03T08:37:48;22.10;70.70
5457;DHT22;2751;49.802;9.944;2022-09-03T08:40:19;22.40;70.30
5457;DHT22;2751;49.802;9.944;2022-09-03T08:42:57;22.80;69.70
5457;DHT22;2751;49.802;9.944;2022-09-03T08:45:31;23.70;68.10
5457;DHT22;2751;49.802;9.944;2022-09-03T08:48:04;24.70;65.60
5457;DHT22;2751;49.802;9.944;2022-09-03T08:50:37;24.50;62.40
5457;DHT22;2751;49.802;9.944;2022-09-03T08:53:10;24.70;62.60
5457;DHT22;2751;49.802;9.944;2022-09-03T08:55:42;25.00;64.60
5457;DHT22;2751;49.802;9.944;2022-09-03T08:58:15;24.90;64.00
5457;DHT22;2751;49.802;9.944;2022-09-03T09:00:49;26.00;59.80
5457;DHT22;2751;49.802;9.944;2022-09-03T09:03:40;27.00;57.30
5457;DHT22;2751;49.802;9.944;2022-09-03T09:06:17;27.40;55.60
5457;DHT22;2751;49.802;9.944;2022-09-03T09:08:58;28.30;55.60
5457;DHT22;2751;49.802;9.944;2022-09-03T09:11:39;27.80;53.80
5457;DHT22;2751;49.802;9.944;2022-09-03T09:14:13;26.90;54.90
5457;DHT22;2751;49.802;9.944;2022-09-03T09:16:48;26.90;54.50
5457;DHT22;2751;49.802;9.944;2022-09-03T09:19:38;27.30;54.30
5457;DHT22;2751;49.802;9.944;2022-09-03T09:22:09;28.70;52.50
5457;DHT22;2751;49.802;9.944;2022-09-03T09:24:41;29.80;51.10
5457;DHT22;2751;49.802;9.944;2022-09-03T09:27:13;31.00;49.30
5457;DHT22;2751;49.802;9.944;2022-09-03T09:29:44;30.80;47.60
5457;DHT22;2751;49.802;9.944;2022-09-03T09:32:13;29.90;47.80
5457;DHT22;2751;49.802;9.944;2022-09-03T09:34:42;28.90;48.30
5457;DHT22;2751;49.802;9.944;2022-09-03T09:37:11;28.10;49.90
5457;DHT22;2751;49.802;9.944;2022-09-03T09:39:52;28.60;49.10
5457;DHT22;2751;49.802;9.944;2022-09-03T09:42:21;29.40;49.00
5457;DHT22;2751;49.802;9.944;2022-09-03T09:44:48;31.90;46.20
5457;DHT22;2751;49.802;9.944;2022-09-03T09:47:21;32.80;44.30
5457;DHT22;2751;49.802;9.944;2022-09-03T09:49:52;33.60;42.70
5457;DHT22;2751;49.802;9.944;2022-09-03T09:52:19;33.40;41.80
5457;DHT22;2751;49.802;9.944;2022-09-03T09:54:53;33.10;41.70
5457;DHT22;2751;49.802;9.944;2022-09-03T09:57:31;32.70;41.60
5457;DHT22;2751;49.802;9.944;2022-09-03T10:00:04;32.50;41.70
5457;DHT22;2751;49.802;9.944;2022-09-03T10:02:34;33.20;41.40
5457;DHT22;2751;49.802;9.944;2022-09-03T10:05:13;33.60;39.70
5457;DHT22;2751;49.802;9.944;2022-09-03T10:07:41;33.40;39.60
5457;DHT22;2751;49.802;9.944;2022-09-03T10:10:16;32.90;40.00
5457;DHT22;2751;49.802;9.944;2022-09-03T10:12:47;32.30;40.70
5457;DHT22;2751;49.802;9.944;2022-09-03T10:15:22;33.00;40.60
5457;DHT22;2751;49.802;9.944;2022-09-03T10:17:56;34.40;38.90
5457;DHT22;2751;49.802;9.944;2022-09-03T10:20:32;34.00;37.70
5457;DHT22;2751;49.802;9.944;2022-09-03T10:23:07;33.50;38.10
5457;DHT22;2751;49.802;9.944;2022-09-03T10:25:42;32.70;39.10
5457;DHT22;2751;49.802;9.944;2022-09-03T10:28:15;32.70;39.40
5457;DHT22;2751;49.802;9.944;2022-09-03T10:30:54;32.80;39.40
5457;DHT22;2751;49.802;9.944;2022-09-03T10:33:26;32.40;39.70
5457;DHT22;2751;49.802;9.944;2022-09-03T10:36:06;30.40;40.60
5457;DHT22;2751;49.802;9.944;2022-09-03T10:38:38;29.50;43.30
5457;DHT22;2751;49.802;9.944;2022-09-03T10:41:16;29.20;43.40
5457;DHT22;2751;49.802;9.944;2022-09-03T10:44:02;28.40;44.50
5457;DHT22;2751;49.802;9.944;2022-09-03T10:46:37;28.70;45.10
5457;DHT22;2751;49.802;9.944;2022-09-03T10:49:34;30.40;43.10
5457;DHT22;2751;49.802;9.944;2022-09-03T10:52:17;32.60;40.50
5457;DHT22;2751;49.802;9.944;2022-09-03T10:54:58;32.70;39.70
5457;DHT22;2751;49.802;9.944;2022-09-03T10:57:36;32.60;39.80
5457;DHT22;2751;49.802;9.944;2022-09-03T11:00:07;31.10;41.10
5457;DHT22;2751;49.802;9.944;2022-09-03T11:03:19;31.20;41.40
5457;DHT22;2751;49.802;9.944;2022-09-03T11:06:11;32.10;40.10
5457;DHT22;2751;49.802;9.944;2022-09-03T11:08:44;30.80;40.50
5457;DHT22;2751;49.802;9.944;2022-09-03T11:11:16;30.40;42.40
5457;DHT22;2751;49.802;9.944;2022-09-03T11:13:50;30.00;43.30
5457;DHT22;2751;49.802;9.944;2022-09-03T11:16:22;28.80;44.00
5457;DHT22;2751;49.802;9.944;2022-09-03T11:18:54;28.30;45.70
5457;DHT22;2751;49.802;9.944;2022-09-03T11:21:24;28.10;46.20
5457;DHT22;2751;49.802;9.944;2022-09-03T11:24:00;27.90;46.50
5457;DHT22;2751;49.802;9.944;2022-09-03T11:26:30;27.30;47.70
5457;DHT22;2751;49.802;9.944;2022-09-03T11:29:03;26.90;48.20
5457;DHT22;2751;49.802;9.944;2022-09-03T11:31:43;27.20;48.40
5457;DHT22;2751;49.802;9.944;2022-09-03T11:34:14;27.10;48.30
5457;DHT22;2751;49.802;9.944;2022-09-03T11:36:41;27.40;49.30
5457;DHT22;2751;49.802;9.944;2022-09-03T11:39:19;28.70;47.50
5457;DHT22;2751;49.802;9.944;2022-09-03T11:41:57;31.50;44.10
5457;DHT22;2751;49.802;9.944;2022-09-03T11:44:36;31.90;42.20
5457;DHT22;2751;49.802;9.944;2022-09-03T11:47:13;30.40;43.10
5457;DHT22;2751;49.802;9.944;2022-09-03T11:49:45;29.20;45.50
5457;DHT22;2751;49.802;9.944;2022-09-03T11:52:24;29.20;45.70
5457;DHT22;2751;49.802;9.944;2022-09-03T11:54:52;29.10;46.10
5457;DHT22;2751;49.802;9.944;2022-09-03T11:57:24;28.10;47.10
5457;DHT22;2751;49.802;9.944;2022-09-03T11:59:54;27.60;47.90
5457;DHT22;2751;49.802;9.944;2022-09-03T12:02:26;27.50;48.20
5457;DHT22;2751;49.802;9.944;2022-09-03T12:05:10;27.90;48.00
5457;DHT22;2751;49.802;9.944;2022-09-03T12:07:54;28.40;47.50
5457;DHT22;2751;49.802;9.944;2022-09-03T12:10:40;28.70;47.20
5457;DHT22;2751;49.802;9.944;2022-09-03T12:13:17;28.90;46.70
5457;DHT22;2751;49.802;9.944;2022-09-03T12:18:53;29.80;46.10
5457;DHT22;2751;49.802;9.944;2022-09-03T12:21:22;31.00;44.40
5457;DHT22;2751;49.802;9.944;2022-09-03T12:23:50;30.10;45.30
5457;DHT22;2751;49.802;9.944;2022-09-03T12:26:20;29.30;46.30
5457;DHT22;2751;49.802;9.944;2022-09-03T12:28:51;29.10;47.00
5457;DHT22;2751;49.802;9.944;2022-09-03T12:31:22;28.90;47.30
5457;DHT22;2751;49.802;9.944;2022-09-03T12:33:51;28.40;48.00
5457;DHT22;2751;49.802;9.944;2022-09-03T12:36:19;27.40;51.10
5457;DHT22;2751;49.802;9.944;2022-09-03T12:38:47;26.40;52.40
5457;DHT22;2751;49.802;9.944;2022-09-03T12:41:22;26.00;54.00
5457;DHT22;2751;49.802;9.944;2022-09-03T12:43:52;25.90;54.20
5457;DHT22;2751;49.802;9.944;2022-09-03T12:46:24;26.20;54.20
5457;DHT22;2751;49.802;9.944;2022-09-03T12:48:56;26.30;53.80
5457;DHT22;2751;49.802;9.944;2022-09-03T12:51:30;26.30;53.60
5457;DHT22;2751;49.802;9.944;2022-09-03T12:53:58;26.40;53.10
5457;DHT22;2751;49.802;9.944;2022-09-03T12:56:25;26.30;53.30
5457;DHT22;2751;49.802;9.944;2022-09-03T12:58:59;26.00;53.60
5457;DHT22;2751;49.802;9.944;2022-09-03T13:01:32;25.90;53.70
5457;DHT22;2751;49.802;9.944;2022-09-03T13:04:03;26.00;53.80
5457;DHT22;2751;49.802;9.944;2022-09-03T13:06:41;25.80;53.90
5457;DHT22;2751;49.802;9.944;2022-09-03T13:09:12;25.50;54.10
5457;DHT22;2751;49.802;9.944;2022-09-03T13:11:40;25.60;54.20
5457;DHT22;2751;49.802;9.944;2022-09-03T13:14:10;26.80;52.70
5457;DHT22;2751;49.802;9.944;2022-09-03T13:17:01;28.30;51.10
5457;DHT22;2751;49.802;9.944;2022-09-03T13:19:40;29.30;49.90
5457;DHT22;2751;49.802;9.944;2022-09-03T13:22:14;29.00;49.60
5457;DHT22;2751;49.802;9.944;2022-09-03T13:25:08;30.10;49.10
5457;DHT22;2751;49.802;9.944;2022-09-03T13:27:43;30.40;47.70
5457;DHT22;2751;49.802;9.944;2022-09-03T13:30:13;30.20;47.50
5457;DHT22;2751;49.802;9.944;2022-09-03T13:32:50;30.00;46.40
5457;DHT22;2751;49.802;9.944;2022-09-03T13:35:27;29.20;47.70
5457;DHT22;2751;49.802;9.944;2022-09-03T13:37:57;29.10;48.40
5457;DHT22;2751;49.802;9.944;2022-09-03T13:40:32;29.10;48.40
5457;DHT22;2751;49.802;9.944;2022-09-03T13:43:02;29.00;48.20
5457;DHT22;2751;49.802;9.944;2022-09-03T13:45:36;29.00;48.50
5457;DHT22;2751;49.802;9.944;2022-09-03T13:48:10;29.20;48.40
5457;DHT22;2751;49.802;9.944;2022-09-03T13:51:03;29.00;49.70
5457;DHT22;2751;49.802;9.944;2022-09-03T13:53:43;28.40;51.10
5457;DHT22;2751;49.802;9.944;2022-09-03T13:56:22;27.80;52.00
5457;DHT22;2751;49.802;9.944;2022-09-03T13:58:56;27.20;52.70
5457;DHT22;2751;49.802;9.944;2022-09-03T14:01:42;26.80;53.50
5457;DHT22;2751;49.802;9.944;2022-09-03T14:04:16;26.50;53.80
5457;DHT22;2751;49.802;9.944;2022-09-03T14:06:48;26.50;55.00
5457;DHT22;2751;49.802;9.944;2022-09-03T14:09:28;26.80;55.20
5457;DHT22;2751;49.802;9.944;2022-09-03T14:12:03;26.90;54.20
5457;DHT22;2751;49.802;9.944;2022-09-03T14:14:39;26.90;54.40
5457;DHT22;2751;49.802;9.944;2022-09-03T14:17:12;27.00;54.20
5457;DHT22;2751;49.802;9.944;2022-09-03T14:19:47;26.90;54.60
5457;DHT22;2751;49.802;9.944;2022-09-03T14:22:17;26.80;54.90
5457;DHT22;2751;49.802;9.944;2022-09-03T14:24:50;26.60;55.10
5457;DHT22;2751;49.802;9.944;2022-09-03T14:27:26;26.70;54.70
5457;DHT22;2751;49.802;9.944;2022-09-03T14:29:58;27.50;53.70
5457;DHT22;2751;49.802;9.944;2022-09-03T14:32:31;28.10;52.60
5457;DHT22;2751;49.802;9.944;2022-09-03T14:35:13;28.70;51.40
5457;DHT22;2751;49.802;9.944;2022-09-03T14:38:04;28.60;51.40
5457;DHT22;2751;49.802;9.944;2022-09-03T14:40:40;28.90;51.30
5457;DHT22;2751;49.802;9.944;2022-09-03T14:43:33;28.70;50.60
5457;DHT22;2751;49.802;9.944;2022-09-03T14:46:17;28.70;50.60
5457;DHT22;2751;49.802;9.944;2022-09-03T14:48:59;28.80;50.70
5457;DHT22;2751;49.802;9.944;2022-09-03T14:51:42;28.90;50.30
5457;DHT22;2751;49.802;9.944;2022-09-03T14:54:29;28.50;50.80
5457;DHT22;2751;49.802;9.944;2022-09-03T14:57:15;28.00;51.40
5457;DHT22;2751;49.802;9.944;2022-09-03T14:59:57;27.70;51.90
5457;DHT22;2751;49.802;9.944;2022-09-03T15:02:51;27.60;52.30
5457;DHT22;2751;49.802;9.944;2022-09-03T15:05:41;27.30;52.40
5457;DHT22;2751;49.802;9.944;2022-09-03T15:08:17;26.80;53.00
5457;DHT22;2751;49.802;9.944;2022-09-03T15:10:50;26.80;53.70
5457;DHT22;2751;49.802;9.944;2022-09-03T15:13:22;26.60;54.30
5457;DHT22;2751;49.802;9.944;2022-09-03T15:16:04;26.50;54.10
5457;DHT22;2751;49.802;9.944;2022-09-03T15:18:47;26.40;54.30
5457;DHT22;2751;49.802;9.944;2022-09-03T15:21:23;26.20;54.30
5457;DHT22;2751;49.802;9.944;2022-09-03T15:24:01;26.10;54.60
5457;DHT22;2751;49.802;9.944;2022-09-03T15:26:50;26.10;55.10
5457;DHT22;2751;49.802;9.944;2022-09-03T15:29:33;26.00;55.50
5457;DHT22;2751;49.802;9.944;2022-09-03T15:32:09;26.10;55.10
5457;DHT22;2751;49.802;9.944;2022-09-03T15:34:49;26.10;55.20
5457;DHT22;2751;49.802;9.944;2022-09-03T15:37:24;26.10;54.40
5457;DHT22;2751;49.802;9.944;2022-09-03T15:40:02;26.30;54.50
5457;DHT22;2751;49.802;9.944;2022-09-03T15:42:30;26.40;54.60
5457;DHT22;2751;49.802;9.944;2022-09-03T15:45:02;26.60;54.70
5457;DHT22;2751;49.802;9.944;2022-09-03T15:47:38;26.60;54.60
5457;DHT22;2751;49.802;9.944;2022-09-03T15:50:15;26.40;54.80
5457;DHT22;2751;49.802;9.944;2022-09-03T15:52:53;26.30;55.70
5457;DHT22;2751;49.802;9.944;2022-09-03T15:55:31;26.40;54.90
5457;DHT22;2751;49.802;9.944;2022-09-03T15:58:04;26.60;55.10
5457;DHT22;2751;49.802;9.944;2022-09-03T16:00:48;27.80;52.80
5457;DHT22;2751;49.802;9.944;2022-09-03T16:03:21;27.70;52.40
5457;DHT22;2751;49.802;9.944;2022-09-03T16:06:01;28.10;52.80
5457;DHT22;2751;49.802;9.944;2022-09-03T16:08:36;28.40;51.50
5457;DHT22;2751;49.802;9.944;2022-09-03T16:11:11;29.20;50.70
5457;DHT22;2751;49.802;9.944;2022-09-03T16:13:54;29.80;50.00
5457;DHT22;2751;49.802;9.944;2022-09-03T16:16:27;29.90;49.10
5457;DHT22;2751;49.802;9.944;2022-09-03T16:19:03;29.70;49.10
5457;DHT22;2751;49.802;9.944;2022-09-03T16:21:36;29.30;50.50
5457;DHT22;2751;49.802;9.944;2022-09-03T16:24:11;28.70;50.40
5457;DHT22;2751;49.802;9.944;2022-09-03T16:26:49;28.40;51.10
5457;DHT22;2751;49.802;9.944;2022-09-03T16:29:24;27.40;52.40
5457;DHT22;2751;49.802;9.944;2022-09-03T16:32:04;26.70;53.50
5457;DHT22;2751;49.802;9.944;2022-09-03T16:34:42;26.10;54.80
5457;DHT22;2751;49.802;9.944;2022-09-03T16:37:20;25.90;55.40
5457;DHT22;2751;49.802;9.944;2022-09-03T16:39:54;25.80;55.70
5457;DHT22;2751;49.802;9.944;2022-09-03T16:42:27;25.60;56.10